createdAt,value
2017-11-04T00:01:40.110Z,7.67
2017-11-04T00:04:07.601Z,5.90
2017-11-04T00:06:35.140Z,5.83
2017-11-04T00:09:04.372Z,7.00
2017-11-04T00:11:31.922Z,7.03
2017-11-04T00:13:59.696Z,6.17
2017-11-04T00:16:27.667Z,6.23
2017-11-04T00:18:55.435Z,5.63
2017-11-04T00:21:24.123Z,6.20
2017-11-04T00:23:51.653Z,5.40
2017-11-04T00:26:19.171Z,7.87
2017-11-04T00:28:46.693Z,5.67
2017-11-04T00:31:15.147Z,6.73
2017-11-04T00:33:42.688Z,6.40
2017-11-04T00:36:11.304Z,6.23
2017-11-04T00:38:39.169Z,6.23
2017-11-04T00:41:07.136Z,7.30
2017-11-04T00:43:35.004Z,5.30
2017-11-04T00:46:02.590Z,6.30
2017-11-04T00:48:31.606Z,6.23
2017-11-04T00:50:59.900Z,6.23
2017-11-04T00:53:28.162Z,5.60
2017-11-04T00:55:58.402Z,6.33
2017-11-04T00:58:25.900Z,5.47
2017-11-04T01:00:53.422Z,5.47
2017-11-04T01:03:20.946Z,5.47
2017-11-04T01:05:48.441Z,5.30
2017-11-04T01:08:17.941Z,5.50
2017-11-04T01:10:45.441Z,5.63
2017-11-04T01:13:12.971Z,6.17
2017-11-04T01:15:40.509Z,6.03
2017-11-04T01:18:08.010Z,6.87
2017-11-04T01:20:35.536Z,5.43
2017-11-04T01:23:03.034Z,8.53
2017-11-04T01:25:32.059Z,5.10
2017-11-04T01:28:00.327Z,5.33
2017-11-04T01:30:28.618Z,6.60
2017-11-04T01:32:56.138Z,10.77
2017-11-04T01:35:23.637Z,5.83
2017-11-04T01:37:51.275Z,6.53
2017-11-04T01:40:18.983Z,5.87
2017-11-04T01:42:46.517Z,5.73
2017-11-04T01:45:14.074Z,7.23
2017-11-04T01:47:41.707Z,6.73
2017-11-04T01:50:10.233Z,5.47
2017-11-04T01:52:38.868Z,5.97
2017-11-04T01:55:07.603Z,9.80
2017-11-04T01:57:36.492Z,5.67
2017-11-04T02:00:04.563Z,5.40
2017-11-04T02:02:32.531Z,5.23
2017-11-04T02:05:00.600Z,7.07
2017-11-04T02:07:28.670Z,6.27
2017-11-04T02:09:56.701Z,7.63
2017-11-04T02:12:25.425Z,6.33
2017-11-04T02:14:53.328Z,6.90
2017-11-04T02:17:22.954Z,5.90
2017-11-04T02:19:52.809Z,5.83
2017-11-04T02:22:20.675Z,5.23
2017-11-04T02:24:48.848Z,5.53
2017-11-04T02:27:16.815Z,7.30
2017-11-04T02:29:44.886Z,6.47
2017-11-04T02:32:12.689Z,6.53
2017-11-04T02:34:42.459Z,9.33
2017-11-04T02:37:10.324Z,8.80
2017-11-04T02:39:38.345Z,6.10
2017-11-04T02:42:05.979Z,8.00
2017-11-04T02:44:33.502Z,19.47
2017-11-04T02:47:01.009Z,14.20
2017-11-04T02:49:28.535Z,8.60
2017-11-04T02:51:56.041Z,10.30
2017-11-04T02:54:24.331Z,6.73
2017-11-04T02:56:52.778Z,10.17
2017-11-04T02:59:20.274Z,7.33
2017-11-04T03:01:47.815Z,24.33
2017-11-04T03:04:16.102Z,10.77
2017-11-04T03:06:43.605Z,9.20
2017-11-04T03:09:11.127Z,7.47
2017-11-04T03:11:39.577Z,12.57
2017-11-04T03:14:07.841Z,6.33
2017-11-04T03:16:35.364Z,5.90
2017-11-04T03:19:02.862Z,7.67
2017-11-04T03:21:31.153Z,10.20
2017-11-04T03:23:59.418Z,7.60
2017-11-04T03:26:27.734Z,7.20
2017-11-04T03:28:55.225Z,7.50
2017-11-04T03:31:22.742Z,6.70
2017-11-04T03:33:50.241Z,6.93
2017-11-04T03:36:17.761Z,6.77
2017-11-04T03:38:45.265Z,7.03
2017-11-04T03:41:12.786Z,9.50
2017-11-04T03:43:40.283Z,6.30
2017-11-04T03:46:08.581Z,7.83
2017-11-04T03:48:36.841Z,5.63
2017-11-04T03:51:05.125Z,6.83
2017-11-04T03:53:33.384Z,6.37
2017-11-04T03:56:01.666Z,6.00
2017-11-04T03:58:29.921Z,6.60
2017-11-04T04:00:57.435Z,5.73
2017-11-04T04:03:24.938Z,6.17
2017-11-04T04:05:52.453Z,9.10
2017-11-04T04:08:19.951Z,6.73
2017-11-04T04:10:47.473Z,5.87
2017-11-04T04:13:14.969Z,8.97
2017-11-04T04:15:42.490Z,9.00
2017-11-04T04:18:09.986Z,8.50
2017-11-04T04:20:39.326Z,6.23
2017-11-04T04:23:06.817Z,6.13
2017-11-04T04:25:34.338Z,6.20
2017-11-04T04:28:01.833Z,5.93
2017-11-04T04:30:31.294Z,8.73
2017-11-04T04:32:58.793Z,6.30
2017-11-04T04:35:26.292Z,7.83
2017-11-04T04:37:54.581Z,7.57
2017-11-04T04:40:22.081Z,6.07
2017-11-04T04:42:50.558Z,5.97
2017-11-04T04:45:18.062Z,6.13
2017-11-04T04:47:46.346Z,8.00
2017-11-04T04:50:13.849Z,5.77
2017-11-04T04:52:42.310Z,6.77
2017-11-04T04:55:09.842Z,6.10
2017-11-04T04:57:37.341Z,5.93
2017-11-04T05:00:04.867Z,5.70
2017-11-04T05:02:32.370Z,7.47
2017-11-04T05:04:59.892Z,6.10
2017-11-04T05:07:28.344Z,7.30
2017-11-04T05:09:55.846Z,5.27
2017-11-04T05:12:23.369Z,6.67
2017-11-04T05:14:50.873Z,5.93
2017-11-04T05:17:18.393Z,6.27
2017-11-04T05:19:45.893Z,5.37
2017-11-04T05:22:13.423Z,5.73
2017-11-04T05:24:40.917Z,5.13
2017-11-04T05:27:08.415Z,5.23
2017-11-04T05:29:35.929Z,5.67
2017-11-04T05:32:03.425Z,5.93
2017-11-04T05:34:30.941Z,6.00
2017-11-04T05:36:58.439Z,7.10
2017-11-04T05:39:25.953Z,6.23
2017-11-04T05:41:53.441Z,7.33
2017-11-04T05:44:20.941Z,7.37
2017-11-04T05:46:48.458Z,7.17
2017-11-04T05:49:16.925Z,6.00
2017-11-04T05:51:45.204Z,5.40
2017-11-04T05:54:13.466Z,6.87
2017-11-04T05:56:41.761Z,5.63
2017-11-04T05:59:09.278Z,5.57
2017-11-04T06:01:36.794Z,5.73
2017-11-04T06:04:04.298Z,5.67
2017-11-04T06:06:33.294Z,5.23
2017-11-04T06:09:01.583Z,5.70
2017-11-04T06:11:30.786Z,6.30
2017-11-04T06:13:58.316Z,6.90
2017-11-04T06:16:25.819Z,5.70
2017-11-04T06:18:53.312Z,5.43
2017-11-04T06:21:20.836Z,5.03
2017-11-04T06:23:48.346Z,6.50
2017-11-04T06:26:16.634Z,5.70
2017-11-04T06:28:44.914Z,6.90
2017-11-04T06:31:13.173Z,5.30
2017-11-04T06:33:41.457Z,5.73
2017-11-04T06:36:09.718Z,5.47
2017-11-04T06:38:38.001Z,7.90
2017-11-04T06:41:06.262Z,5.83
2017-11-04T06:43:33.758Z,6.20
2017-11-04T06:46:01.277Z,6.00
2017-11-04T06:48:28.794Z,6.10
2017-11-04T06:50:56.330Z,6.10
2017-11-04T06:53:23.830Z,6.63
2017-11-04T06:55:51.359Z,7.70
2017-11-04T06:58:18.852Z,7.27
2017-11-04T07:00:46.346Z,5.23
2017-11-04T07:03:14.633Z,6.03
2017-11-04T07:05:42.141Z,7.87
2017-11-04T07:08:09.662Z,9.33
2017-11-04T07:10:37.163Z,6.30
2017-11-04T07:13:04.661Z,5.70
2017-11-04T07:15:32.178Z,5.77
2017-11-04T07:17:59.682Z,4.73
2017-11-04T07:20:27.201Z,6.13
2017-11-04T07:22:55.485Z,6.63
2017-11-04T07:25:23.769Z,6.63
2017-11-04T07:27:52.025Z,7.63
2017-11-04T07:30:19.541Z,6.07
2017-11-04T07:32:47.033Z,6.70
2017-11-04T07:35:14.534Z,6.57
2017-11-04T07:37:44.041Z,6.73
2017-11-04T07:40:11.537Z,7.03
2017-11-04T07:42:39.054Z,5.93
2017-11-04T07:45:06.551Z,6.57
2017-11-04T07:47:34.050Z,5.23
2017-11-04T07:50:02.335Z,6.80
2017-11-04T07:52:30.806Z,6.30
2017-11-04T07:54:59.094Z,5.23
2017-11-04T07:57:27.545Z,6.67
2017-11-04T07:59:55.809Z,5.53
2017-11-04T08:02:23.344Z,6.10
2017-11-04T08:04:50.845Z,6.10
2017-11-04T08:07:19.137Z,5.47
2017-11-04T08:09:46.630Z,6.13
2017-11-04T08:12:14.140Z,6.30
2017-11-04T08:14:41.662Z,5.83
2017-11-04T08:17:09.157Z,5.60
2017-11-04T08:19:36.691Z,5.90
2017-11-04T08:22:04.958Z,5.60
2017-11-04T08:24:32.454Z,6.57
2017-11-04T08:26:59.973Z,6.20
2017-11-04T08:29:28.431Z,6.77
2017-11-04T08:31:55.951Z,6.23
2017-11-04T08:34:23.462Z,5.70
2017-11-04T08:36:52.682Z,6.00
2017-11-04T08:39:20.966Z,5.13
2017-11-04T08:41:48.469Z,5.67
2017-11-04T08:44:17.934Z,5.30
2017-11-04T08:46:45.442Z,7.57
2017-11-04T08:49:12.943Z,6.50
2017-11-04T08:51:40.466Z,5.67
2017-11-04T08:54:09.677Z,6.20
2017-11-04T08:56:37.969Z,6.90
2017-11-04T08:59:06.233Z,6.00
2017-11-04T09:01:34.498Z,5.20
2017-11-04T09:04:03.801Z,9.00
2017-11-04T09:06:32.066Z,5.87
2017-11-04T09:08:59.583Z,7.03
2017-11-04T09:11:27.077Z,6.20
2017-11-04T09:13:54.607Z,4.83
2017-11-04T09:16:22.105Z,5.67
2017-11-04T09:18:50.394Z,33.27
2017-11-04T09:21:17.941Z,5.47
2017-11-04T09:23:46.202Z,7.30
2017-11-04T09:26:14.631Z,5.60
2017-11-04T09:28:42.318Z,6.43
2017-11-04T09:31:09.838Z,6.70
2017-11-04T09:33:39.114Z,5.93
2017-11-04T09:36:07.374Z,5.60
2017-11-04T09:38:34.894Z,4.97
2017-11-04T09:41:02.389Z,6.43
2017-11-04T09:43:30.670Z,5.77
2017-11-04T09:45:59.895Z,5.73
2017-11-04T09:48:28.350Z,4.67
2017-11-04T09:50:56.613Z,6.30
2017-11-04T09:53:26.090Z,6.13
2017-11-04T09:55:54.543Z,5.93
2017-11-04T09:58:22.054Z,6.10
2017-11-04T10:00:52.323Z,10.57
2017-11-04T10:03:19.829Z,6.13
2017-11-04T10:05:47.343Z,5.40
2017-11-04T10:08:14.846Z,7.43
2017-11-04T10:10:43.134Z,15.10
2017-11-04T10:13:11.413Z,7.37
2017-11-04T10:15:39.673Z,5.87
2017-11-04T10:18:07.962Z,8.13
2017-11-04T10:20:36.250Z,6.27
2017-11-04T10:23:05.706Z,9.63
2017-11-04T10:25:34.195Z,6.90
2017-11-04T10:28:01.725Z,5.67
2017-11-04T10:30:29.250Z,6.37
2017-11-04T10:32:56.753Z,6.90
2017-11-04T10:35:24.301Z,5.13
2017-11-04T10:37:51.817Z,6.30
2017-11-04T10:40:19.314Z,6.93
2017-11-04T10:42:47.159Z,6.40
2017-11-04T10:45:14.724Z,5.50
2017-11-04T10:47:42.400Z,5.97
2017-11-04T10:50:09.963Z,6.90
2017-11-04T10:52:37.917Z,5.00
2017-11-04T10:55:06.225Z,5.83
2017-11-04T10:57:33.746Z,5.33
2017-11-04T11:00:01.266Z,7.07
2017-11-04T11:02:29.530Z,5.70
2017-11-04T11:04:57.802Z,6.27
2017-11-04T11:07:26.086Z,6.17
2017-11-04T11:09:54.345Z,4.60
2017-11-04T11:12:21.867Z,6.00
2017-11-04T11:14:49.371Z,15.50
2017-11-04T11:17:17.641Z,355.90
2017-11-04T11:19:47.893Z,167.83
2017-11-04T11:22:15.433Z,197.33
2017-11-04T11:24:43.710Z,226.90
2017-11-04T11:27:12.226Z,296.20
2017-11-04T11:29:39.731Z,224.50
2017-11-04T11:32:08.032Z,179.17
2017-11-04T11:34:36.518Z,167.90
2017-11-04T11:37:04.059Z,166.10
2017-11-04T11:39:32.326Z,155.47
2017-11-04T11:42:00.623Z,132.03
2017-11-04T11:44:28.129Z,168.77
2017-11-04T11:46:55.637Z,115.87
2017-11-04T11:49:23.170Z,140.57
2017-11-04T11:51:51.445Z,110.37
2017-11-04T11:54:19.746Z,108.37
2017-11-04T11:56:47.261Z,121.47
2017-11-04T11:59:14.791Z,129.63
2017-11-04T12:01:44.277Z,119.10
2017-11-04T12:04:11.781Z,109.23
2017-11-04T12:06:40.069Z,112.07
2017-11-04T12:09:09.286Z,97.43
2017-11-04T12:11:36.842Z,108.63
2017-11-04T12:14:04.347Z,93.90
2017-11-04T12:16:32.115Z,123.37
2017-11-04T12:18:59.694Z,105.47
2017-11-04T12:21:28.121Z,91.70
2017-11-04T12:23:55.884Z,80.43
2017-11-04T12:26:23.647Z,79.37
2017-11-04T12:28:51.190Z,83.77
2017-11-04T12:31:18.729Z,72.50
2017-11-04T12:33:47.001Z,69.77
2017-11-04T12:36:15.281Z,68.47
2017-11-04T12:38:43.578Z,75.63
2017-11-04T12:41:13.086Z,60.17
2017-11-04T12:43:40.590Z,75.93
2017-11-04T12:46:08.100Z,58.13
2017-11-04T12:48:35.627Z,56.60
2017-11-04T12:51:03.897Z,58.90
2017-11-04T12:53:32.189Z,58.77
2017-11-04T12:55:59.705Z,52.87
2017-11-04T12:58:27.233Z,55.63
2017-11-04T13:00:54.752Z,51.73
2017-11-04T13:03:23.060Z,38.37
2017-11-04T13:05:51.502Z,47.47
2017-11-04T13:08:19.793Z,48.83
2017-11-04T13:10:47.294Z,44.47
2017-11-04T13:13:14.823Z,41.37
2017-11-04T13:15:42.325Z,41.93
2017-11-04T13:18:09.854Z,35.13
2017-11-04T13:20:37.390Z,34.33
2017-11-04T13:23:04.890Z,36.67
2017-11-04T13:25:32.397Z,43.13
2017-11-04T13:27:59.913Z,38.30
2017-11-04T13:30:28.361Z,39.57
2017-11-04T13:32:55.890Z,39.10
2017-11-04T13:35:23.390Z,34.27
2017-11-04T13:37:50.920Z,25.43
2017-11-04T13:40:18.421Z,26.27
2017-11-04T13:42:45.950Z,28.27
2017-11-04T13:45:13.456Z,31.30
2017-11-04T13:47:42.734Z,33.57
2017-11-04T13:50:10.242Z,26.00
2017-11-04T13:52:38.086Z,27.77
2017-11-04T13:55:06.354Z,28.00
2017-11-04T13:57:34.652Z,29.47
2017-11-04T14:00:02.164Z,21.47
2017-11-04T14:02:29.666Z,20.40
2017-11-04T14:04:57.205Z,31.17
2017-11-04T14:07:25.470Z,19.30
2017-11-04T14:09:53.757Z,25.07
2017-11-04T14:12:22.026Z,22.20
2017-11-04T14:14:50.341Z,19.03
2017-11-04T14:17:17.833Z,21.17
2017-11-04T14:19:45.451Z,19.23
2017-11-04T14:22:13.317Z,18.47
2017-11-04T14:24:42.310Z,18.50
2017-11-04T14:27:10.078Z,18.67
2017-11-04T14:29:37.795Z,23.27
2017-11-04T14:32:05.632Z,22.23
2017-11-04T14:34:33.135Z,23.70
2017-11-04T14:37:01.022Z,24.73
2017-11-04T14:39:28.589Z,18.47
2017-11-04T14:41:57.369Z,19.93
2017-11-04T14:44:25.129Z,16.70
2017-11-04T14:46:52.790Z,20.10
2017-11-04T14:49:20.555Z,15.77
2017-11-04T14:51:48.111Z,18.77
2017-11-04T14:54:15.613Z,15.97
2017-11-04T14:56:43.137Z,16.00
2017-11-04T14:59:10.653Z,13.00
2017-11-04T15:01:38.947Z,11.50
2017-11-04T15:04:07.399Z,18.60
2017-11-04T15:06:37.645Z,10.43
2017-11-04T15:09:05.157Z,16.70
2017-11-04T15:11:32.701Z,23.63
2017-11-04T15:14:00.214Z,23.00
2017-11-04T15:16:27.743Z,17.17
2017-11-04T15:18:55.247Z,11.27
2017-11-04T15:21:22.779Z,12.33
2017-11-04T15:23:50.282Z,19.37
2017-11-04T15:26:17.781Z,20.67
2017-11-04T15:28:45.321Z,19.83
2017-11-04T15:31:13.592Z,17.73
2017-11-04T15:33:41.121Z,16.13
2017-11-04T15:36:08.630Z,23.07
2017-11-04T15:38:38.899Z,12.80
2017-11-04T15:41:06.405Z,12.20
2017-11-04T15:43:34.674Z,11.37
2017-11-04T15:46:04.921Z,20.33
2017-11-04T15:48:32.419Z,14.30
2017-11-04T15:50:59.941Z,16.03
2017-11-04T15:53:27.441Z,10.37
2017-11-04T15:55:54.970Z,18.13
2017-11-04T15:58:22.469Z,15.57
2017-11-04T16:00:49.979Z,14.33
2017-11-04T16:03:17.498Z,9.50
2017-11-04T16:05:45.757Z,11.77
2017-11-04T16:08:13.290Z,10.00
2017-11-04T16:10:40.810Z,8.37
2017-11-04T16:13:08.346Z,15.87
2017-11-04T16:15:36.625Z,11.97
2017-11-04T16:18:04.904Z,10.70
2017-11-04T16:20:33.198Z,6.83
2017-11-04T16:23:00.701Z,10.87
2017-11-04T16:25:28.230Z,11.17
2017-11-04T16:27:56.677Z,10.33
2017-11-04T16:30:24.208Z,13.23
2017-11-04T16:32:51.710Z,10.93
2017-11-04T16:35:19.213Z,8.90
2017-11-04T16:37:47.633Z,9.63
2017-11-04T16:40:15.125Z,10.10
2017-11-04T16:42:42.647Z,10.90
2017-11-04T16:45:10.138Z,8.83
2017-11-04T16:47:37.641Z,9.23
2017-11-04T16:50:05.935Z,12.87
2017-11-04T16:52:33.430Z,7.90
2017-11-04T16:55:00.946Z,8.07
2017-11-04T16:57:28.446Z,9.00
2017-11-04T16:59:55.942Z,8.90
2017-11-04T17:02:24.234Z,10.10
2017-11-04T17:04:51.741Z,6.57
2017-11-04T17:07:19.257Z,9.17
2017-11-04T17:09:46.758Z,8.57
2017-11-04T17:12:14.282Z,10.10
2017-11-04T17:14:41.777Z,7.30
2017-11-04T17:17:09.277Z,8.17
2017-11-04T17:19:36.807Z,8.33
2017-11-04T17:22:04.310Z,9.53
2017-11-04T17:24:31.828Z,6.00
2017-11-04T17:27:01.038Z,12.17
2017-11-04T17:29:30.271Z,8.97
2017-11-04T17:31:57.790Z,6.87
2017-11-04T17:34:26.058Z,6.90
2017-11-04T17:36:56.306Z,7.30
2017-11-04T17:39:23.804Z,9.13
2017-11-04T17:41:51.329Z,8.83
2017-11-04T17:44:18.830Z,8.07
2017-11-04T17:46:46.330Z,8.00
2017-11-04T17:49:13.846Z,7.20
2017-11-04T17:51:42.325Z,11.93
2017-11-04T17:54:09.847Z,8.13
2017-11-04T17:56:37.366Z,10.80
2017-11-04T17:59:05.633Z,9.53
2017-11-04T18:01:33.923Z,7.93
2017-11-04T18:04:01.421Z,7.60
2017-11-04T18:06:28.919Z,6.97
2017-11-04T18:08:57.206Z,6.27
2017-11-04T18:11:25.477Z,13.63
2017-11-04T18:13:53.769Z,7.17
2017-11-04T18:16:21.277Z,9.10
2017-11-04T18:18:50.734Z,7.00
2017-11-04T18:21:18.230Z,7.37
2017-11-04T18:23:45.729Z,7.90
2017-11-04T18:26:14.020Z,6.97
2017-11-04T18:28:41.517Z,7.50
2017-11-04T18:31:09.029Z,7.57
2017-11-04T18:33:36.526Z,9.90
2017-11-04T18:36:04.022Z,8.60
2017-11-04T18:38:32.309Z,7.67
2017-11-04T18:41:00.575Z,7.57
2017-11-04T18:43:28.857Z,6.30
2017-11-04T18:45:57.117Z,6.90
2017-11-04T18:48:25.410Z,6.83
2017-11-04T18:50:53.670Z,6.80
2017-11-04T18:53:21.940Z,11.50
2017-11-04T18:55:50.229Z,6.47
2017-11-04T18:58:18.493Z,7.53
2017-11-04T19:00:46.803Z,7.00
2017-11-04T19:03:14.293Z,8.00
2017-11-04T19:05:41.809Z,7.23
2017-11-04T19:08:09.326Z,6.97
2017-11-04T19:10:36.825Z,7.20
2017-11-04T19:13:06.339Z,7.40
2017-11-04T19:15:33.829Z,6.37
2017-11-04T19:18:01.354Z,6.50
2017-11-04T19:20:28.856Z,8.13
2017-11-04T19:22:56.358Z,7.57
2017-11-04T19:25:23.879Z,6.00
2017-11-04T19:27:51.375Z,6.87
2017-11-04T19:30:18.898Z,8.57
2017-11-04T19:32:47.161Z,5.70
2017-11-04T19:35:14.667Z,8.27
2017-11-04T19:37:42.177Z,7.20
2017-11-04T19:40:09.678Z,6.57
2017-11-04T19:42:37.201Z,6.00
2017-11-04T19:45:05.457Z,7.20
2017-11-04T19:47:32.957Z,7.10
2017-11-04T19:50:00.483Z,6.67
2017-11-04T19:52:28.751Z,6.90
2017-11-04T19:54:56.271Z,6.13
2017-11-04T19:57:23.766Z,9.03
2017-11-04T19:59:51.286Z,7.50
2017-11-04T20:02:18.784Z,6.60
2017-11-04T20:04:47.086Z,5.90
2017-11-04T20:07:14.594Z,6.97
2017-11-04T20:09:42.094Z,5.23
2017-11-04T20:12:10.374Z,10.27
2017-11-04T20:14:37.876Z,7.40
2017-11-04T20:17:05.396Z,6.07
2017-11-04T20:19:33.854Z,8.00
2017-11-04T20:22:02.143Z,6.80
2017-11-04T20:24:31.334Z,6.13
2017-11-04T20:26:59.604Z,6.00
2017-11-04T20:29:27.890Z,6.47
2017-11-04T20:31:55.389Z,7.30
2017-11-04T20:34:22.910Z,9.20
2017-11-04T20:36:50.409Z,7.40
2017-11-04T20:39:17.913Z,5.93
2017-11-04T20:41:45.434Z,6.50
2017-11-04T20:44:12.937Z,6.40
2017-11-04T20:46:42.394Z,8.10
2017-11-04T20:49:09.894Z,8.90
2017-11-04T20:51:37.414Z,8.30
2017-11-04T20:54:04.929Z,7.47
2017-11-04T20:56:32.422Z,10.80
2017-11-04T20:59:01.883Z,7.23
2017-11-04T21:01:29.386Z,6.20
2017-11-04T21:03:56.910Z,7.63
2017-11-04T21:06:24.410Z,7.80
2017-11-04T21:08:52.708Z,9.70
2017-11-04T21:11:20.231Z,8.50
2017-11-04T21:13:47.738Z,18.03
2017-11-04T21:16:15.258Z,8.87
2017-11-04T21:18:43.525Z,6.83
2017-11-04T21:21:11.035Z,10.30
2017-11-04T21:23:38.558Z,9.00
2017-11-04T21:26:06.818Z,9.60
2017-11-04T21:28:37.086Z,12.60
2017-11-04T21:31:04.590Z,11.10
2017-11-04T21:33:32.109Z,9.00
2017-11-04T21:35:59.604Z,8.17
2017-11-04T21:38:27.116Z,10.50
2017-11-04T21:40:54.638Z,8.43
2017-11-04T21:43:22.913Z,8.30
2017-11-04T21:45:51.206Z,7.77
2017-11-04T21:48:18.703Z,9.90
2017-11-04T21:50:48.202Z,7.63
2017-11-04T21:53:16.601Z,8.13
2017-11-04T21:55:44.426Z,6.50
2017-11-04T21:58:12.292Z,8.57
2017-11-04T22:00:40.261Z,7.87
2017-11-04T22:03:09.207Z,10.37
2017-11-04T22:05:36.938Z,7.30
2017-11-04T22:08:04.880Z,8.23
2017-11-04T22:10:32.745Z,9.83
2017-11-04T22:13:02.378Z,6.27
2017-11-04T22:15:30.799Z,9.53
2017-11-04T22:17:58.379Z,7.63
2017-11-04T22:20:27.278Z,7.63
2017-11-04T22:22:55.145Z,10.07
2017-11-04T22:25:23.727Z,7.13
2017-11-04T22:27:51.334Z,8.40
2017-11-04T22:30:18.961Z,5.80
2017-11-04T22:32:46.470Z,8.30
2017-11-04T22:35:14.762Z,8.37
2017-11-04T22:37:42.267Z,7.23
2017-11-04T22:40:09.802Z,8.80
2017-11-04T22:42:37.453Z,6.57
2017-11-04T22:45:04.990Z,8.30
2017-11-04T22:47:33.613Z,6.43
2017-11-04T22:50:02.278Z,6.30
2017-11-04T22:52:31.374Z,7.07
2017-11-04T22:55:00.363Z,8.63
2017-11-04T22:57:28.433Z,7.80
2017-11-04T22:59:57.527Z,6.30
2017-11-04T23:02:25.281Z,11.97
2017-11-04T23:04:54.180Z,7.37
2017-11-04T23:07:22.044Z,6.20
2017-11-04T23:09:50.012Z,5.87
2017-11-04T23:12:17.980Z,6.13
2017-11-04T23:14:45.948Z,6.43
2017-11-04T23:17:14.940Z,7.30
2017-11-04T23:19:42.805Z,6.53
2017-11-04T23:22:10.772Z,7.27
2017-11-04T23:24:38.640Z,10.63
2017-11-04T23:27:06.233Z,6.90
2017-11-04T23:29:34.703Z,6.50
2017-11-04T23:32:03.039Z,7.03
2017-11-04T23:34:30.558Z,6.30
2017-11-04T23:36:58.058Z,5.87
2017-11-04T23:39:25.578Z,7.53
2017-11-04T23:41:54.041Z,6.63
2017-11-04T23:44:21.570Z,6.83
2017-11-04T23:46:49.061Z,7.93
2017-11-04T23:49:16.577Z,8.17
2017-11-04T23:51:44.082Z,6.80
2017-11-04T23:54:12.378Z,9.67
2017-11-04T23:56:40.642Z,9.90
2017-11-04T23:59:08.937Z,7.67
